Time;durP1;ratioP1;P1;durP2;ratioP2;P2;SDS_P1;SDS_P2;PMS_P1;PMS_P2;Temp;Humidity;BMP_temperature;BMP_pressure;BME280_temperature;BME280_humidity;BME280_pressure;Samples;Min_cycle;Max_cycle;Signal;HPM_P1;HPM_P2
2020/09/27 00:00:15;;;;;;;0.3;0.2;;;;;;;;;;;;;
2020/09/27 00:02:40;;;;;;;0.2;0.2;;;;;;;;;;;;;
2020/09/27 00:05:06;;;;;;;0.1;0.1;;;;;;;;;;;;;
2020/09/27 00:07:31;;;;;;;0.5;0.2;;;;;;;;;;;;;
2020/09/27 00:09:56;;;;;;;0.1;0.1;;;;;;;;;;;;;
2020/09/27 00:12:21;;;;;;;0.2;0.2;;;;;;;;;;;;;
2020/09/27 00:14:47;;;;;;;0;0;;;;;;;;;;;;;
2020/09/27 00:17:12;;;;;;;0.1;0.1;;;;;;;;;;;;;
2020/09/27 00:19:37;;;;;;;0;0;;;;;;;;;;;;;
2020/09/27 00:22:02;;;;;;;0.1;0.1;;;;;;;;;;;;;
2020/09/27 00:24:27;;;;;;;0.4;0.2;;;;;;;;;;;;;
2020/09/27 00:26:52;;;;;;;0.1;0.1;;;;;;;;;;;;;
2020/09/27 00:29:17;;;;;;;0.1;0.1;;;;;;;;;;;;;
2020/09/27 00:31:43;;;;;;;0.2;0.1;;;;;;;;;;;;;
2020/09/27 00:34:08;;;;;;;0.1;0.1;;;;;;;;;;;;;
2020/09/27 00:36:33;;;;;;;0.7;0.2;;;;;;;;;;;;;
2020/09/27 00:38:58;;;;;;;1.1;0.1;;;;;;;;;;;;;
2020/09/27 00:41:24;;;;;;;0.3;0.2;;;;;;;;;;;;;
2020/09/27 00:43:49;;;;;;;0.1;0;;;;;;;;;;;;;
2020/09/27 00:46:15;;;;;;;0.1;0;;;;;;;;;;;;;
2020/09/27 00:48:40;;;;;;;0.3;0.2;;;;;;;;;;;;;
2020/09/27 00:51:07;;;;;;;0.1;0.1;;;;;;;;;;;;;
2020/09/27 00:53:32;;;;;;;0.7;0.1;;;;;;;;;;;;;
2020/09/27 00:55:57;;;;;;;0.1;0.1;;;;;;;;;;;;;
2020/09/27 00:58:22;;;;;;;0.1;0.1;;;;;;;;;;;;;
2020/09/27 01:00:47;;;;;;;0.1;0;;;;;;;;;;;;;
2020/09/27 01:03:13;;;;;;;0.1;0.1;;;;;;;;;;;;;
2020/09/27 01:05:38;;;;;;;0;0;;;;;;;;;;;;;
2020/09/27 01:08:04;;;;;;;0.1;0.1;;;;;;;;;;;;;
2020/09/27 01:10:29;;;;;;;0.1;0.1;;;;;;;;;;;;;
2020/09/27 01:12:55;;;;;;;0.3;0.2;;;;;;;;;;;;;
2020/09/27 01:15:20;;;;;;;0;0;;;;;;;;;;;;;
2020/09/27 01:17:46;;;;;;;0.1;0;;;;;;;;;;;;;
2020/09/27 01:20:11;;;;;;;0;0;;;;;;;;;;;;;
2020/09/27 01:22:37;;;;;;;0.1;0.1;;;;;;;;;;;;;
2020/09/27 01:25:02;;;;;;;1;0.1;;;;;;;;;;;;;
2020/09/27 01:27:29;;;;;;;0.7;0.1;;;;;;;;;;;;;
2020/09/27 01:29:54;;;;;;;0;0;;;;;;;;;;;;;
2020/09/27 01:32:20;;;;;;;0.1;0.1;;;;;;;;;;;;;
2020/09/27 01:34:45;;;;;;;0.2;0.2;;;;;;;;;;;;;
2020/09/27 01:37:11;;;;;;;0.2;0.1;;;;;;;;;;;;;
2020/09/27 01:39:36;;;;;;;0.8;0.2;;;;;;;;;;;;;
2020/09/27 01:42:02;;;;;;;0.4;0.2;;;;;;;;;;;;;
2020/09/27 01:44:27;;;;;;;0.1;0.1;;;;;;;;;;;;;
2020/09/27 01:46:54;;;;;;;0.1;0.1;;;;;;;;;;;;;
2020/09/27 01:49:19;;;;;;;0.9;0.1;;;;;;;;;;;;;
2020/09/27 01:51:45;;;;;;;0.1;0.1;;;;;;;;;;;;;
2020/09/27 01:54:10;;;;;;;0;0;;;;;;;;;;;;;
2020/09/27 01:56:36;;;;;;;0;0;;;;;;;;;;;;;
2020/09/27 01:59:01;;;;;;;0.1;0.1;;;;;;;;;;;;;
2020/09/27 02:01:28;;;;;;;0.1;0.1;;;;;;;;;;;;;
2020/09/27 02:03:53;;;;;;;0.2;0.1;;;;;;;;;;;;;
2020/09/27 02:06:19;;;;;;;0.1;0.1;;;;;;;;;;;;;
2020/09/27 02:08:44;;;;;;;0;0;;;;;;;;;;;;;
2020/09/27 02:11:10;;;;;;;0.1;0.1;;;;;;;;;;;;;
2020/09/27 02:13:35;;;;;;;0.2;0.1;;;;;;;;;;;;;
2020/09/27 02:16:01;;;;;;;0.1;0.1;;;;;;;;;;;;;
2020/09/27 02:18:26;;;;;;;0;0;;;;;;;;;;;;;
2020/09/27 02:20:52;;;;;;;0.5;0.1;;;;;;;;;;;;;
2020/09/27 02:23:17;;;;;;;0.1;0.1;;;;;;;;;;;;;
2020/09/27 02:25:43;;;;;;;0;0;;;;;;;;;;;;;
2020/09/27 02:28:09;;;;;;;0;0;;;;;;;;;;;;;
2020/09/27 02:30:35;;;;;;;0.1;0.1;;;;;;;;;;;;;
2020/09/27 02:33:00;;;;;;;0.3;0.2;;;;;;;;;;;;;
2020/09/27 02:35:26;;;;;;;0.3;0.1;;;;;;;;;;;;;
2020/09/27 02:37:51;;;;;;;0.2;0.1;;;;;;;;;;;;;
2020/09/27 02:40:16;;;;;;;0;0;;;;;;;;;;;;;
2020/09/27 02:42:41;;;;;;;0.1;0.1;;;;;;;;;;;;;
2020/09/27 02:45:07;;;;;;;0;0;;;;;;;;;;;;;
2020/09/27 02:47:32;;;;;;;0.2;0.2;;;;;;;;;;;;;
2020/09/27 02:49:57;;;;;;;2.2;0.2;;;;;;;;;;;;;
2020/09/27 02:52:22;;;;;;;0.1;0.1;;;;;;;;;;;;;
2020/09/27 02:54:47;;;;;;;0.1;0.1;;;;;;;;;;;;;
2020/09/27 02:57:13;;;;;;;0.1;0.1;;;;;;;;;;;;;
2020/09/27 02:59:39;;;;;;;0.4;0.1;;;;;;;;;;;;;
2020/09/27 03:02:04;;;;;;;0.2;0.2;;;;;;;;;;;;;
2020/09/27 03:04:29;;;;;;;0.4;0.1;;;;;;;;;;;;;
2020/09/27 03:06:54;;;;;;;0.2;0.2;;;;;;;;;;;;;
2020/09/27 03:09:19;;;;;;;0.3;0.2;;;;;;;;;;;;;
2020/09/27 03:11:45;;;;;;;0.1;0.1;;;;;;;;;;;;;
2020/09/27 03:14:10;;;;;;;0.2;0.2;;;;;;;;;;;;;
2020/09/27 03:16:35;;;;;;;0.3;0.3;;;;;;;;;;;;;
2020/09/27 03:19:01;;;;;;;0.1;0.1;;;;;;;;;;;;;
2020/09/27 03:21:27;;;;;;;0.4;0.2;;;;;;;;;;;;;
2020/09/27 03:23:53;;;;;;;0.1;0.1;;;;;;;;;;;;;
2020/09/27 03:26:18;;;;;;;0.2;0.2;;;;;;;;;;;;;
2020/09/27 03:28:44;;;;;;;0.1;0.1;;;;;;;;;;;;;
2020/09/27 03:31:09;;;;;;;0.7;0.3;;;;;;;;;;;;;
2020/09/27 03:33:35;;;;;;;0.1;0.1;;;;;;;;;;;;;
2020/09/27 03:36:00;;;;;;;0.2;0.2;;;;;;;;;;;;;
2020/09/27 03:38:25;;;;;;;0.1;0.1;;;;;;;;;;;;;
2020/09/27 03:40:51;;;;;;;0.1;0.1;;;;;;;;;;;;;
2020/09/27 03:43:16;;;;;;;1.5;0.1;;;;;;;;;;;;;
2020/09/27 03:45:41;;;;;;;0.1;0.1;;;;;;;;;;;;;
2020/09/27 03:48:07;;;;;;;0.1;0.1;;;;;;;;;;;;;
2020/09/27 03:50:32;;;;;;;0.2;0.2;;;;;;;;;;;;;
2020/09/27 03:52:57;;;;;;;0.5;0.4;;;;;;;;;;;;;
2020/09/27 03:55:23;;;;;;;0.2;0.1;;;;;;;;;;;;;
2020/09/27 03:57:48;;;;;;;0.1;0.1;;;;;;;;;;;;;
2020/09/27 04:02:33;;;;;;;0.1;0.1;;;;;;;6.47;84.1709;924.7567;;;;
2020/09/27 04:04:59;;;;;;;1;0.3;;;;;;;6.45;84.72168;924.8318;;;;
2020/09/27 04:07:26;;;;;;;0.8;0.3;;;;;;;6.37;85.04492;924.8787;;;;
2020/09/27 04:09:51;;;;;;;0.6;0.2;;;;;;;6.38;85.02441;924.7949;;;;
2020/09/27 04:12:18;;;;;;;0.7;0.3;;;;;;;6.31;85.71094;924.7544;;;;
2020/09/27 04:14:43;;;;;;;0.3;0.2;;;;;;;6.39;85.72852;924.7594;;;;
2020/09/27 04:17:11;;;;;;;0.2;0.1;;;;;;;6.42;85.57422;924.6625;;;;
2020/09/27 04:19:36;;;;;;;0.1;0.1;;;;;;;6.39;85.3877;924.8036;;;;
2020/09/27 04:22:03;;;;;;;0.1;0.1;;;;;;;6.45;84.7334;924.7922;;;;
2020/09/27 04:24:28;;;;;;;1.5;0.4;;;;;;;6.45;85.00488;924.7156;;;;
2020/09/27 04:26:53;;;;;;;0.2;0.2;;;;;;;6.46;85.28906;924.7449;;;;
2020/09/27 04:29:18;;;;;;;0.4;0.2;;;;;;;6.49;84.8418;924.7639;;;;
2020/09/27 04:31:43;;;;;;;0.5;0.3;;;;;;;6.44;84.83301;924.6926;;;;
2020/09/27 04:34:10;;;;;;;1.7;0.2;;;;;;;6.38;84.88867;924.7198;;;;
2020/09/27 04:36:35;;;;;;;0.4;0.4;;;;;;;6.31;85.14551;924.6856;;;;
2020/09/27 04:39:00;;;;;;;0.7;0.4;;;;;;;6.03;86.22168;924.671;;;;
2020/09/27 04:41:28;;;;;;;0.2;0.2;;;;;;;6.07;86.30762;924.6861;;;;
2020/09/27 04:43:53;;;;;;;1.4;0.3;;;;;;;6.07;87.07617;924.6394;;;;
2020/09/27 04:46:18;;;;;;;0.1;0.1;;;;;;;5.91;87.50586;924.5927;;;;
2020/09/27 04:48:47;;;;;;;0.3;0.2;;;;;;;6.01;85.09961;924.6914;;;;
2020/09/27 04:51:14;;;;;;;0.3;0.1;;;;;;;6.06;85.16309;924.7437;;;;
2020/09/27 04:53:39;;;;;;;0.2;0.2;;;;;;;6.07;85.70898;924.7698;;;;
2020/09/27 04:56:04;;;;;;;0.4;0.3;;;;;;;6.11;85.50098;924.7375;;;;
2020/09/27 04:58:30;;;;;;;0.1;0.1;;;;;;;5.83;86.32617;924.7745;;;;
2020/09/27 05:00:55;;;;;;;0.3;0.3;;;;;;;6.01;86.64551;924.7617;;;;
2020/09/27 05:03:20;;;;;;;0.5;0.4;;;;;;;6.09;86.30176;924.7548;;;;
2020/09/27 05:05:46;;;;;;;0.1;0.1;;;;;;;5.99;85.0127;924.717;;;;
2020/09/27 05:08:11;;;;;;;0.2;0.2;;;;;;;6.21;85.10254;924.7319;;;;
2020/09/27 05:10:38;;;;;;;0.3;0.3;;;;;;;6.34;82.94629;924.6794;;;;
2020/09/27 05:13:03;;;;;;;0.1;0.1;;;;;;;6.51;83.62402;924.6872;;;;
2020/09/27 05:15:28;;;;;;;0.5;0.3;;;;;;;6.63;83.81836;924.6997;;;;
2020/09/27 05:17:54;;;;;;;0.2;0.2;;;;;;;6.73;83.01172;924.7458;;;;
2020/09/27 05:20:19;;;;;;;0.2;0.2;;;;;;;6.64;84.13477;924.7891;;;;
2020/09/27 05:22:44;;;;;;;1.7;0.3;;;;;;;6.74;84.42773;924.8035;;;;
2020/09/27 05:25:11;;;;;;;0.2;0.2;;;;;;;6.83;83.54004;924.796;;;;
2020/09/27 05:27:36;;;;;;;0.4;0.3;;;;;;;6.87;82.95898;924.8261;;;;
2020/09/27 05:30:01;;;;;;;0.9;0.6;;;;;;;6.93;82.42773;924.9149;;;;
2020/09/27 05:32:26;;;;;;;0.5;0.5;;;;;;;6.9;83.48633;924.914;;;;
2020/09/27 05:34:52;;;;;;;0.3;0.3;;;;;;;6.83;83.31543;924.8981;;;;
2020/09/27 05:37:22;;;;;;;1.4;0.9;;;;;;;6.81;82.29199;924.9139;;;;
2020/09/27 05:39:56;;;;;;;0.9;0.5;;;;;;;6.92;81.48535;924.914;;;;
2020/09/27 05:42:22;;;;;;;1;0.7;;;;;;;6.74;82.56055;924.8597;;;;
2020/09/27 05:44:47;;;;;;;0.5;0.5;;;;;;;6.93;82.44824;924.8206;;;;
2020/09/27 05:47:12;;;;;;;0.5;0.5;;;;;;;6.94;81.80664;924.8484;;;;
2020/09/27 05:49:37;;;;;;;1.3;0.7;;;;;;;6.98;81.72266;924.8358;;;;
2020/09/27 05:52:05;;;;;;;1.5;0.6;;;;;;;7.19;82.20605;924.8867;;;;
2020/09/27 05:54:30;;;;;;;0.5;0.4;;;;;;;7.01;81.91113;924.9469;;;;
2020/09/27 05:56:58;;;;;;;2.3;0.4;;;;;;;7.08;80.9375;924.8725;;;;
2020/09/27 05:59:23;;;;;;;0.2;0.2;;;;;;;7.43;80.66406;924.9048;;;;
2020/09/27 06:01:48;;;;;;;0.2;0.2;;;;;;;8.19;77.46777;924.8287;;;;
2020/09/27 06:04:14;;;;;;;0.1;0.1;;;;;;;8.69;74.93457;924.8181;;;;
2020/09/27 06:06:40;;;;;;;1.2;0.3;;;;;;;8.94;72.66699;924.824;;;;
2020/09/27 06:09:04;;;;;;;0.2;0.2;;;;;;;8.86;70.88965;924.8381;;;;
2020/09/27 06:11:32;;;;;;;0.4;0.4;;;;;;;8.79;72.56348;924.8025;;;;
2020/09/27 06:13:57;;;;;;;0.6;0.4;;;;;;;8.75;70.82617;924.8114;;;;
2020/09/27 06:16:24;;;;;;;0.8;0.6;;;;;;;8.66;71.76758;924.8056;;;;
2020/09/27 06:18:49;;;;;;;0.7;0.3;;;;;;;8.4;72.76855;924.8047;;;;
2020/09/27 06:21:16;;;;;;;0.5;0.5;;;;;;;8.32;73.36914;924.8436;;;;
2020/09/27 06:23:42;;;;;;;1;0.5;;;;;;;8.17;74.62695;924.725;;;;
2020/09/27 06:26:10;;;;;;;0.2;0.2;;;;;;;8.23;73.44434;924.6941;;;;
2020/09/27 06:28:35;;;;;;;0.3;0.3;;;;;;;8.23;73.8418;924.7417;;;;
2020/09/27 06:31:01;;;;;;;0.7;0.4;;;;;;;7.95;74.80371;924.7222;;;;
2020/09/27 06:33:29;;;;;;;0.1;0.1;;;;;;;7.68;74.46191;924.7852;;;;
2020/09/27 06:35:54;;;;;;;0.4;0.3;;;;;;;7.77;74.85352;924.7659;;;;
2020/09/27 06:38:22;;;;;;;0.2;0.2;;;;;;;7.97;73.69336;924.8299;;;;
2020/09/27 06:40:47;;;;;;;0.1;0.1;;;;;;;7.87;72.98535;924.7367;;;;
2020/09/27 06:43:15;;;;;;;0.8;0.1;;;;;;;8.23;73.43262;924.7781;;;;
2020/09/27 06:45:40;;;;;;;0;0;;;;;;;8.17;72.02539;924.813;;;;
2020/09/27 06:48:08;;;;;;;0.2;0.2;;;;;;;8.15;72.3291;924.8043;;;;
2020/09/27 06:50:33;;;;;;;0.3;0.2;;;;;;;8.19;73.1416;924.8644;;;;
2020/09/27 06:53:00;;;;;;;0.2;0.2;;;;;;;8.21;73.50781;924.8175;;;;
2020/09/27 06:55:25;;;;;;;0.4;0.2;;;;;;;8.24;73.93359;924.8804;;;;
2020/09/27 06:57:51;;;;;;;0.1;0.1;;;;;;;8.28;71.98828;924.8621;;;;
2020/09/27 07:00:22;;;;;;;0.1;0.1;;;;;;;8.49;75.22754;924.9291;;;;
2020/09/27 07:02:48;;;;;;;0;0;;;;;;;8.35;71.13574;924.8453;;;;
2020/09/27 07:05:15;;;;;;;0.2;0.2;;;;;;;8.25;70.86914;924.8605;;;;
2020/09/27 07:07:41;;;;;;;0;0;;;;;;;8.45;70.95996;924.907;;;;
2020/09/27 07:10:06;;;;;;;0.3;0.2;;;;;;;8.79;70.84277;924.9144;;;;
2020/09/27 07:12:32;;;;;;;0.9;0.4;;;;;;;8.87;68.85645;925.0284;;;;
2020/09/27 07:14:56;;;;;;;0.2;0.2;;;;;;;9.22;71.12109;924.9824;;;;
2020/09/27 07:17:22;;;;;;;0.3;0.2;;;;;;;9.46;69.16602;925.092;;;;
2020/09/27 07:19:50;;;;;;;0;0;;;;;;;9.85;67.23535;924.997;;;;
2020/09/27 07:22:16;;;;;;;0.1;0.1;;;;;;;10;66.32227;925.1149;;;;
2020/09/27 07:24:40;;;;;;;0.1;0.1;;;;;;;10.44;64.80371;925.1042;;;;
2020/09/27 07:27:06;;;;;;;0.2;0.2;;;;;;;10.6;63.7207;925.068;;;;
2020/09/27 07:29:33;;;;;;;0.1;0.1;;;;;;;10.74;63.55762;925.0594;;;;
2020/09/27 07:31:58;;;;;;;0.3;0.2;;;;;;;11.35;62.83398;925.0821;;;;
2020/09/27 07:34:23;;;;;;;19.5;8.9;;;;;;;11.44;58.84277;925.1225;;;;
2020/09/27 07:36:51;;;;;;;1.6;1.4;;;;;;;11.46;58.63965;925.0545;;;;
2020/09/27 07:39:23;;;;;;;7.6;5.2;;;;;;;11.42;59.98438;925.1539;;;;
2020/09/27 07:41:41;;;;;;;2.3;1.7;;;;;;;12.34;59.46973;925.1342;;;;
2020/09/27 07:44:06;;;;;;;0.3;0.3;;;;;;;13.46;55.18652;925.1522;;;;
2020/09/27 07:46:31;;;;;;;0.5;0.5;;;;;;;14.08;54.46973;925.1392;;;;
2020/09/27 07:48:59;;;;;;;0.3;0.3;;;;;;;15.27;49.49414;925.1534;;;;
2020/09/27 07:51:24;;;;;;;0.1;0.1;;;;;;;16.24;48.27441;925.1534;;;;
2020/09/27 07:53:50;;;;;;;0.3;0.2;;;;;;;16.44;43.37695;925.2202;;;;
2020/09/27 07:56:15;;;;;;;0.3;0.2;;;;;;;17.15;46.60059;925.2201;;;;
2020/09/27 07:58:44;;;;;;;0;0;;;;;;;19.41;41.50391;925.1513;;;;
2020/09/27 08:01:14;;;;;;;0.1;0.1;;;;;;;21.89;36.74609;925.1244;;;;
2020/09/27 08:03:39;;;;;;;0.1;0.1;;;;;;;22.86;33.76074;925.1067;;;;
2020/09/27 08:06:07;;;;;;;11.1;1.7;;;;;;;23.87;30.05957;925.0934;;;;
2020/09/27 08:08:32;;;;;;;0.2;0.1;;;;;;;24.38;30.76563;925.1525;;;;
2020/09/27 08:10:57;;;;;;;0.1;0.1;;;;;;;24.81;29.07324;925.1117;;;;
2020/09/27 08:13:23;;;;;;;0;0;;;;;;;24.88;27.32031;925.1089;;;;
2020/09/27 08:15:49;;;;;;;0.1;0;;;;;;;25.8;26.44238;925.1;;;;
2020/09/27 08:18:17;;;;;;;0.1;0.1;;;;;;;26.25;26.89453;925.1381;;;;
2020/09/27 08:20:42;;;;;;;0.2;0;;;;;;;25.08;26.87207;925.1021;;;;
2020/09/27 08:23:08;;;;;;;0;0;;;;;;;27.11;25.63086;925.2134;;;;
2020/09/27 08:25:33;;;;;;;0;0;;;;;;;27.64;25.61328;925.2929;;;;
2020/09/27 08:27:58;;;;;;;0.1;0;;;;;;;27.7;24.12109;925.2112;;;;
2020/09/27 08:30:27;;;;;;;0;0;;;;;;;27.38;24.04492;925.2603;;;;
2020/09/27 08:32:54;;;;;;;0;0;;;;;;;27.62;24.40137;925.2173;;;;
2020/09/27 08:35:21;;;;;;;0.1;0.1;;;;;;;27.35;24.84961;925.2194;;;;
2020/09/27 08:37:50;;;;;;;0;0;;;;;;;27.33;24.43359;925.2227;;;;
2020/09/27 08:40:18;;;;;;;0.3;0.2;;;;;;;27.91;23.74023;925.2856;;;;
2020/09/27 08:42:47;;;;;;;0;0;;;;;;;26.48;25.93848;925.2178;;;;
2020/09/27 08:45:21;;;;;;;0;0;;;;;;;26.97;25.87109;925.3281;;;;
2020/09/27 08:47:49;;;;;;;0;0;;;;;;;26.71;25.93945;925.3206;;;;
2020/09/27 08:50:14;;;;;;;0.1;0;;;;;;;27.28;25.32031;925.3066;;;;
2020/09/27 08:52:42;;;;;;;0;0;;;;;;;24.24;26.5625;925.2698;;;;
2020/09/27 08:55:07;;;;;;;0;0;;;;;;;23.41;29.75781;925.3951;;;;
2020/09/27 08:57:35;;;;;;;0;0;;;;;;;24.38;29.57617;925.3697;;;;
2020/09/27 09:00:00;;;;;;;0.2;0.1;;;;;;;24.96;28.43457;925.4091;;;;
2020/09/27 09:02:29;;;;;;;0;0;;;;;;;25.39;27.81152;925.3484;;;;
2020/09/27 09:04:54;;;;;;;0.1;0;;;;;;;25.44;27.17676;925.3423;;;;
2020/09/27 09:07:19;;;;;;;0.3;0.1;;;;;;;24.54;25.88477;925.2946;;;;
2020/09/27 09:09:50;;;;;;;0;0;;;;;;;23.78;29.71191;925.4002;;;;
2020/09/27 09:12:19;;;;;;;0.1;0.1;;;;;;;24.69;27.26172;925.3563;;;;
2020/09/27 09:14:43;;;;;;;0.1;0.1;;;;;;;25.43;28.00391;925.3535;;;;
2020/09/27 09:17:11;;;;;;;0.2;0.1;;;;;;;26.05;27.86426;925.3988;;;;
2020/09/27 09:19:36;;;;;;;0;0;;;;;;;25.81;26.43066;925.4553;;;;
2020/09/27 09:22:01;;;;;;;0;0;;;;;;;24.81;26.33691;925.4254;;;;
2020/09/27 09:24:28;;;;;;;0.1;0.1;;;;;;;24.33;28.48926;925.4673;;;;
2020/09/27 09:26:58;;;;;;;0;0;;;;;;;23.78;28.41797;925.5023;;;;
2020/09/27 09:29:23;;;;;;;0.1;0.1;;;;;;;23.21;30.54395;925.5051;;;;
2020/09/27 09:31:48;;;;;;;0;0;;;;;;;23.07;30.70996;925.5062;;;;
2020/09/27 09:34:13;;;;;;;0;0;;;;;;;22.57;31.14453;925.4645;;;;
2020/09/27 09:36:39;;;;;;;0;0;;;;;;;21.21;32.38379;925.4459;;;;
2020/09/27 09:39:05;;;;;;;0;0;;;;;;;20.68;34.35547;925.5201;;;;
2020/09/27 09:41:31;;;;;;;0;0;;;;;;;20.12;33.41211;925.4219;;;;
2020/09/27 09:43:56;;;;;;;0;0;;;;;;;20.07;34.37793;925.4719;;;;
2020/09/27 09:46:23;;;;;;;0.3;0;;;;;;;19.41;39.60449;925.5243;;;;
2020/09/27 09:48:48;;;;;;;1.5;0.4;;;;;;;19.06;41.75;925.5243;;;;
2020/09/27 09:51:14;;;;;;;0.1;0.1;;;;;;;19.13;40.44141;925.5533;;;;
2020/09/27 09:53:39;;;;;;;0.1;0.1;;;;;;;18.77;40.29297;925.5801;;;;
2020/09/27 09:56:04;;;;;;;0;0;;;;;;;18.94;42.99609;925.6281;;;;
2020/09/27 09:58:30;;;;;;;0;0;;;;;;;18.7;41.30957;925.6648;;;;
2020/09/27 10:00:59;;;;;;;0;0;;;;;;;18.29;43.30469;925.6219;;;;
2020/09/27 10:03:24;;;;;;;0.1;0.1;;;;;;;18.55;42.19043;925.647;;;;
2020/09/27 10:05:50;;;;;;;0.1;0.1;;;;;;;18.34;41.63574;925.6279;;;;
2020/09/27 10:08:15;;;;;;;0.6;0.3;;;;;;;18.09;41.84473;925.6057;;;;
2020/09/27 10:10:46;;;;;;;0.3;0;;;;;;;17.77;44.14746;925.616;;;;
2020/09/27 10:13:11;;;;;;;0.1;0.1;;;;;;;17.75;47.1748;925.599;;;;
2020/09/27 10:15:36;;;;;;;0.3;0.1;;;;;;;18.24;43.63672;925.6111;;;;
2020/09/27 10:18:04;;;;;;;0;0;;;;;;;18.43;43.85254;925.5722;;;;
2020/09/27 10:20:29;;;;;;;0;0;;;;;;;18.16;44.24512;925.6308;;;;
2020/09/27 10:22:56;;;;;;;0.4;0.1;;;;;;;18.6;42.74219;925.6103;;;;
2020/09/27 10:25:21;;;;;;;0;0;;;;;;;18.27;43.57031;925.6188;;;;
2020/09/27 10:27:47;;;;;;;0.1;0.1;;;;;;;18.23;43.76465;925.6677;;;;
2020/09/27 10:30:12;;;;;;;0;0;;;;;;;18.39;42.26855;925.6418;;;;
2020/09/27 10:32:40;;;;;;;0;0;;;;;;;18.31;42.66602;925.6149;;;;
2020/09/27 10:35:04;;;;;;;0.1;0.1;;;;;;;18.32;41.93652;925.6577;;;;
2020/09/27 10:37:31;;;;;;;1.7;0.5;;;;;;;17.94;45.36133;925.6086;;;;
2020/09/27 10:40:01;;;;;;;0;0;;;;;;;17.81;44.8252;925.5964;;;;
2020/09/27 10:42:21;;;;;;;0;0;;;;;;;18.21;44.13379;925.6288;;;;
2020/09/27 10:44:46;;;;;;;0.1;0.1;;;;;;;17.99;43.77344;925.5948;;;;
2020/09/27 10:47:11;;;;;;;0.1;0;;;;;;;18.4;44.53613;925.5828;;;;
2020/09/27 10:49:36;;;;;;;0;0;;;;;;;18.26;44.91699;925.6482;;;;
2020/09/27 10:52:02;;;;;;;0;0;;;;;;;18.09;41.82129;925.6572;;;;
2020/09/27 10:54:27;;;;;;;0;0;;;;;;;17.81;43.58301;925.6465;;;;
2020/09/27 10:56:52;;;;;;;0;0;;;;;;;17.75;45.31738;925.6841;;;;
2020/09/27 10:59:17;;;;;;;0;0;;;;;;;18.14;41.98828;925.7034;;;;
2020/09/27 11:01:43;;;;;;;0.1;0.1;;;;;;;18.26;38.88574;925.5909;;;;
2020/09/27 11:04:09;;;;;;;0;0;;;;;;;18.42;38.59766;925.6426;;;;
2020/09/27 11:06:33;;;;;;;0.5;0.2;;;;;;;18.68;40.03906;925.5947;;;;
2020/09/27 11:09:00;;;;;;;0.1;0;;;;;;;18.97;38.30762;925.5449;;;;
2020/09/27 11:11:25;;;;;;;0;0;;;;;;;19.02;37.46289;925.5739;;;;
2020/09/27 11:13:52;;;;;;;0;0;;;;;;;19.69;38.61621;925.5316;;;;
2020/09/27 11:16:17;;;;;;;0.4;0;;;;;;;20.09;38.34668;925.5463;;;;
2020/09/27 11:18:43;;;;;;;0.6;0.1;;;;;;;20.26;34.34668;925.5316;;;;
2020/09/27 11:21:08;;;;;;;0;0;;;;;;;20.08;33.6084;925.5284;;;;
2020/09/27 11:23:33;;;;;;;0;0;;;;;;;20.22;36.55957;925.5115;;;;
2020/09/27 11:25:58;;;;;;;0;0;;;;;;;20.53;35.04395;925.4213;;;;
2020/09/27 11:28:23;;;;;;;0;0;;;;;;;20.45;35.83105;925.4763;;;;
2020/09/27 11:30:49;;;;;;;0.1;0.1;;;;;;;19.49;34.92676;925.4483;;;;
2020/09/27 11:33:14;;;;;;;0;0;;;;;;;19.72;34.45508;925.4448;;;;
2020/09/27 11:35:39;;;;;;;0.9;0.3;;;;;;;20.22;34.35352;925.3999;;;;
2020/09/27 11:38:05;;;;;;;0.1;0;;;;;;;20.27;32.57129;925.3981;;;;
2020/09/27 11:40:30;;;;;;;0.1;0;;;;;;;20.47;32.29395;925.358;;;;
2020/09/27 11:42:55;;;;;;;0.4;0;;;;;;;20.86;31.80859;925.3373;;;;
2020/09/27 11:45:25;;;;;;;0;0;;;;;;;20.78;31.84961;925.2771;;;;
2020/09/27 11:47:53;;;;;;;0;0;;;;;;;20.76;32.77148;925.2775;;;;
2020/09/27 11:50:21;;;;;;;0;0;;;;;;;20.76;31.43945;925.2805;;;;
2020/09/27 11:52:46;;;;;;;0;0;;;;;;;20.86;32.66211;925.2159;;;;
2020/09/27 11:55:20;;;;;;;1.3;0.6;;;;;;;20.55;31.44727;925.1711;;;;
2020/09/27 11:57:47;;;;;;;0;0;;;;;;;19.96;33.50586;925.2756;;;;
2020/09/27 12:00:15;;;;;;;0.1;0;;;;;;;18.58;33.9248;925.2772;;;;
2020/09/27 12:02:40;;;;;;;0;0;;;;;;;18.31;35.27539;925.2156;;;;
2020/09/27 12:05:12;;;;;;;0.3;0.1;;;;;;;18.73;34.61035;925.2783;;;;
2020/09/27 12:07:38;;;;;;;0.1;0.1;;;;;;;18.4;33.12109;925.2715;;;;
2020/09/27 12:10:03;;;;;;;1;0.2;;;;;;;18.69;36.0498;925.2288;;;;
2020/09/27 12:12:31;;;;;;;0;0;;;;;;;19.05;34.98535;925.2025;;;;
2020/09/27 12:14:56;;;;;;;0.1;0.1;;;;;;;19.13;33.29199;925.2328;;;;
2020/09/27 12:17:22;;;;;;;0;0;;;;;;;19.25;36.67773;925.1989;;;;
2020/09/27 12:19:47;;;;;;;3.5;0.4;;;;;;;19.29;31.62598;925.2473;;;;
2020/09/27 12:22:17;;;;;;;0;0;;;;;;;19.22;30.11816;925.2244;;;;
2020/09/27 12:24:42;;;;;;;0;0;;;;;;;19.24;34.16211;925.2758;;;;
2020/09/27 12:27:07;;;;;;;0;0;;;;;;;19.05;30.68945;925.2664;;;;
2020/09/27 12:29:34;;;;;;;0;0;;;;;;;18.29;32.34375;925.2756;;;;
2020/09/27 12:32:00;;;;;;;0;0;;;;;;;18.42;32.49414;925.2525;;;;
2020/09/27 12:34:25;;;;;;;0;0;;;;;;;18.72;33.04004;925.2204;;;;
2020/09/27 12:36:50;;;;;;;0;0;;;;;;;18.98;31.68555;925.1334;;;;
2020/09/27 12:39:15;;;;;;;0.2;0.2;;;;;;;19.19;35.25293;925.1125;;;;
2020/09/27 12:41:41;;;;;;;0.2;0.1;;;;;;;19.23;33.97461;925.1312;;;;
2020/09/27 12:44:07;;;;;;;0.2;0.1;;;;;;;19.06;33.12402;925.1788;;;;
2020/09/27 12:46:33;;;;;;;0.3;0.1;;;;;;;19.36;33.05176;925.2117;;;;
2020/09/27 12:48:58;;;;;;;0;0;;;;;;;18.69;32.53711;925.1082;;;;
2020/09/27 12:51:24;;;;;;;0.5;0.1;;;;;;;18.89;33.79688;925.1813;;;;
2020/09/27 12:53:49;;;;;;;0;0;;;;;;;19.19;30.22168;925.1342;;;;
2020/09/27 12:56:14;;;;;;;0;0;;;;;;;19.28;30.37891;925.0928;;;;
2020/09/27 12:58:39;;;;;;;0.1;0.1;;;;;;;19.39;29.47852;925.06;;;;
2020/09/27 13:01:06;;;;;;;0;0;;;;;;;19.49;30.69629;925.0238;;;;
2020/09/27 13:03:32;;;;;;;0;0;;;;;;;19.69;30.10449;925.1666;;;;
2020/09/27 13:06:01;;;;;;;0.4;0;;;;;;;19.94;32.96777;925.1301;;;;
2020/09/27 13:08:28;;;;;;;0;0;;;;;;;20.02;32.29688;925.2113;;;;
2020/09/27 13:10:53;;;;;;;0;0;;;;;;;20.19;30.00977;925.2051;;;;
2020/09/27 13:13:20;;;;;;;0;0;;;;;;;20.44;30.72754;925.1389;;;;
2020/09/27 13:15:45;;;;;;;0.1;0;;;;;;;20.43;30.55078;925.1507;;;;
2020/09/27 13:18:10;;;;;;;0;0;;;;;;;20.42;29.41797;925.1742;;;;
2020/09/27 13:20:35;;;;;;;0.2;0.1;;;;;;;20.51;30.27734;925.226;;;;
2020/09/27 13:23:00;;;;;;;0.1;0.1;;;;;;;20.27;27.89063;925.2386;;;;
2020/09/27 13:25:26;;;;;;;0.1;0;;;;;;;20.03;32.19238;925.2556;;;;
2020/09/27 13:27:51;;;;;;;0;0;;;;;;;20.1;29.67676;925.2216;;;;
2020/09/27 13:30:23;;;;;;;0;0;;;;;;;19.92;29.54785;925.2161;;;;
2020/09/27 13:32:49;;;;;;;0.1;0.1;;;;;;;19.87;29.05469;925.2395;;;;
2020/09/27 13:35:14;;;;;;;1;0.3;;;;;;;19.81;31.17285;925.1872;;;;
2020/09/27 13:37:39;;;;;;;0;0;;;;;;;19.6;31.00684;925.1941;;;;
2020/09/27 13:40:04;;;;;;;0.2;0.2;;;;;;;19.67;31.94434;925.2059;;;;
2020/09/27 13:42:31;;;;;;;0.1;0.1;;;;;;;19.62;31.10254;925.2216;;;;
2020/09/27 13:44:56;;;;;;;0.2;0.1;;;;;;;19.82;28.89941;925.2869;;;;
2020/09/27 13:47:24;;;;;;;0.2;0.1;;;;;;;19.66;29.55371;925.2651;;;;
2020/09/27 13:49:50;;;;;;;0.2;0.2;;;;;;;19.58;32.06641;925.2449;;;;
2020/09/27 13:52:16;;;;;;;0;0;;;;;;;19.51;29.99805;925.2667;;;;
2020/09/27 13:54:41;;;;;;;0.1;0;;;;;;;19.61;30.43652;925.2234;;;;
2020/09/27 13:57:06;;;;;;;0;0;;;;;;;19.43;30.62305;925.3135;;;;
2020/09/27 13:59:32;;;;;;;0;0;;;;;;;19.39;32.3916;925.3491;;;;
2020/09/27 14:02:00;;;;;;;0.1;0.1;;;;;;;19.17;28.07715;925.3513;;;;
2020/09/27 14:04:25;;;;;;;0;0;;;;;;;18.61;27.65723;925.3414;;;;
2020/09/27 14:06:51;;;;;;;0.3;0.2;;;;;;;18.7;31.23535;925.3865;;;;
2020/09/27 14:09:16;;;;;;;1.1;0;;;;;;;18.97;31.12598;925.3727;;;;
2020/09/27 14:11:43;;;;;;;0.1;0.1;;;;;;;19.1;29.13281;925.4319;;;;
2020/09/27 14:14:08;;;;;;;0;0;;;;;;;19.21;30.5957;925.3818;;;;
2020/09/27 14:16:35;;;;;;;0;0;;;;;;;19.22;31.45801;925.3655;;;;
2020/09/27 14:19:00;;;;;;;0.4;0.2;;;;;;;19.13;31.2998;925.342;;;;
2020/09/27 14:21:26;;;;;;;0.1;0;;;;;;;19.31;32.15137;925.3139;;;;
2020/09/27 14:23:50;;;;;;;0.1;0;;;;;;;19.25;31.87891;925.3159;;;;
2020/09/27 14:26:17;;;;;;;0;0;;;;;;;19.5;32.45703;925.2769;;;;
2020/09/27 14:28:42;;;;;;;0;0;;;;;;;19.6;31.54297;925.231;;;;
2020/09/27 14:31:08;;;;;;;0;0;;;;;;;19.4;32.16992;925.2996;;;;
2020/09/27 14:33:33;;;;;;;0;0;;;;;;;19.41;33.41699;925.2747;;;;
2020/09/27 14:35:59;;;;;;;0.4;0.3;;;;;;;19.39;30.8291;925.2605;;;;
2020/09/27 14:38:23;;;;;;;0;0;;;;;;;19.32;30.04395;925.2507;;;;
2020/09/27 14:40:50;;;;;;;0;0;;;;;;;19.5;34.37988;925.3406;;;;
2020/09/27 14:43:15;;;;;;;0.1;0.1;;;;;;;19.71;32.47266;925.2483;;;;
2020/09/27 14:45:47;;;;;;;0;0;;;;;;;19.81;31.9668;925.2615;;;;
2020/09/27 14:48:12;;;;;;;0;0;;;;;;;19.7;33.13574;925.221;;;;
2020/09/27 14:50:37;;;;;;;0;0;;;;;;;19.2;32.67871;925.3043;;;;
2020/09/27 14:53:03;;;;;;;0;0;;;;;;;19.24;33.96387;925.2874;;;;
2020/09/27 14:55:28;;;;;;;2.3;0.2;;;;;;;19.03;36.87012;925.3373;;;;
2020/09/27 14:57:54;;;;;;;0.3;0.2;;;;;;;18.96;38.5752;925.404;;;;
2020/09/27 15:00:31;;;;;;;0.1;0.1;;;;;;;18.76;40.58203;925.3806;;;;
2020/09/27 15:03:01;;;;;;;0.2;0.1;;;;;;;18.5;39.32617;925.4693;;;;
2020/09/27 15:05:33;;;;;;;0;0;;;;;;;18.33;37.92773;925.3856;;;;
2020/09/27 15:07:59;;;;;;;3.7;0.2;;;;;;;18.5;38.4541;925.4506;;;;
2020/09/27 15:10:24;;;;;;;0;0;;;;;;;18.37;32.40918;925.4333;;;;
2020/09/27 15:12:50;;;;;;;0;0;;;;;;;18.17;32.87012;925.5129;;;;
2020/09/27 15:15:17;;;;;;;0;0;;;;;;;18.38;37.76855;925.5563;;;;
2020/09/27 15:17:43;;;;;;;0.2;0.1;;;;;;;18.39;38.50293;925.5829;;;;
2020/09/27 15:20:09;;;;;;;0.1;0.1;;;;;;;18.39;38.52539;925.5267;;;;
2020/09/27 15:22:42;;;;;;;0.2;0.1;;;;;;;18.41;36.77148;925.6317;;;;
2020/09/27 15:25:13;;;;;;;0;0;;;;;;;18.62;36.58008;925.6395;;;;
2020/09/27 15:28:13;;;;;;;0.1;0.1;;;;;;;18.16;42.61816;925.6203;;;;
2020/09/27 15:30:02;;;;;;;0.1;0.1;;;;;;;18.11;41.05566;925.6395;;;;
2020/09/27 15:32:27;;;;;;;0.1;0.1;;;;;;;18.13;41.2207;925.6675;;;;
2020/09/27 15:34:52;;;;;;;0.4;0.4;;;;;;;17.4;41.2334;925.6362;;;;
2020/09/27 15:37:18;;;;;;;1.2;0.5;;;;;;;17.33;41.51758;925.6828;;;;
2020/09/27 15:39:45;;;;;;;0.8;0.4;;;;;;;17.38;41.38281;925.6829;;;;
2020/09/27 15:42:10;;;;;;;1.1;0.6;;;;;;;17.06;42.89453;925.6707;;;;
2020/09/27 15:44:36;;;;;;;0.8;0.6;;;;;;;16.57;45.49805;925.6623;;;;
2020/09/27 15:47:04;;;;;;;0.6;0.2;;;;;;;16.39;45.61719;925.6554;;;;
2020/09/27 15:49:29;;;;;;;0.1;0.1;;;;;;;16.28;46.24219;925.663;;;;